EmailTwitter


Observations de surface / Québec / EGTC

Régions: Québec | Canada | États-Unis | Europe | France | UK | Ailleurs
Station
Affichage
Infos & localisation pour EGTC | Aide pour décoder les METARs

Observations prises le 2017-09-26 à 16H20 UTC à CRANFIELD, UK (EGTC)

Etat du ciel: ciel variable.

Température: 18.0 Celsius

Point de rosée: 14.0 Celsius

Humidité relative: 77%

Vents: Est à 9 km/h ou 5 noeuds.

Pression au niveau moyen de la mer: 102.20 kilopascals.

Visibilité horizontale: 4.35 milles terrestres ou 6.96 kilomètres.

Observation METAR:

EGTC 261620Z 08005KT 7000 SCT025 18/14 Q1022=